createdAt,value
2018-06-24T00:01:01.178Z,3.97
2018-06-24T00:06:05.502Z,3.83
2018-06-24T00:11:08.864Z,4.83
2018-06-24T00:16:12.076Z,3.70
2018-06-24T00:21:15.300Z,3.77
2018-06-24T00:26:18.522Z,4.30
2018-06-24T00:31:22.424Z,3.90
2018-06-24T00:36:25.669Z,3.77
2018-06-24T00:41:28.873Z,3.87
2018-06-24T00:46:32.118Z,3.70
2018-06-24T00:51:35.319Z,3.53
2018-06-24T00:56:38.524Z,3.50
2018-06-24T01:01:41.697Z,3.40
2018-06-24T01:06:44.894Z,3.13
2018-06-24T01:11:48.141Z,2.97
2018-06-24T01:16:51.305Z,3.30
2018-06-24T01:21:54.525Z,3.30
2018-06-24T01:26:57.774Z,3.00
2018-06-24T01:32:00.982Z,3.00
2018-06-24T01:37:04.166Z,2.80
2018-06-24T01:42:08.881Z,2.40
2018-06-24T01:47:12.103Z,3.10
2018-06-24T01:52:15.294Z,3.47
2018-06-24T01:57:18.477Z,2.70
2018-06-24T02:02:21.632Z,3.00
2018-06-24T02:07:24.814Z,2.63
2018-06-24T02:12:28.238Z,3.07
2018-06-24T02:17:33.698Z,3.00
2018-06-24T02:22:36.909Z,2.83
2018-06-24T02:27:40.162Z,3.63
2018-06-24T02:32:44.496Z,3.83
2018-06-24T02:37:47.698Z,3.83
2018-06-24T02:42:50.895Z,3.20
2018-06-24T02:47:54.122Z,3.60
2018-06-24T02:52:57.330Z,3.77
2018-06-24T02:58:00.557Z,3.87
2018-06-24T03:03:03.578Z,3.60
2018-06-24T03:08:06.812Z,3.30
2018-06-24T03:13:10.038Z,3.80
2018-06-24T03:18:13.256Z,4.17
2018-06-24T03:23:16.466Z,3.97
2018-06-24T03:28:21.722Z,3.83
2018-06-24T03:33:24.974Z,3.97
2018-06-24T03:38:28.290Z,4.33
2018-06-24T03:43:31.570Z,4.17
2018-06-24T03:48:34.794Z,3.80
2018-06-24T03:53:37.990Z,4.67
2018-06-24T03:58:42.474Z,4.67
2018-06-24T04:03:45.705Z,4.10
2018-06-24T04:08:48.926Z,5.07
2018-06-24T04:13:52.132Z,5.40
2018-06-24T04:18:55.379Z,4.23
2018-06-24T04:23:59.870Z,4.83
2018-06-24T04:29:03.078Z,4.93
2018-06-24T04:34:06.319Z,5.13
2018-06-24T04:39:10.593Z,5.07
2018-06-24T04:44:13.793Z,4.80
2018-06-24T04:49:16.988Z,5.90
2018-06-24T04:54:20.873Z,5.43
2018-06-24T04:59:23.812Z,5.27
2018-06-24T05:04:27.006Z,5.53
2018-06-24T05:09:31.257Z,5.50
2018-06-24T05:14:34.463Z,5.10
2018-06-24T05:19:42.766Z,5.87
2018-06-24T05:24:46.075Z,5.33
2018-06-24T05:29:49.315Z,5.10
2018-06-24T05:34:52.510Z,4.80
2018-06-24T05:39:56.046Z,5.20
2018-06-24T05:45:01.372Z,4.63
2018-06-24T05:50:04.342Z,5.03
2018-06-24T05:55:07.626Z,4.47
2018-06-24T06:00:11.678Z,3.50
2018-06-24T06:05:14.913Z,4.60
2018-06-24T06:10:18.192Z,4.40
2018-06-24T06:15:21.386Z,3.70
2018-06-24T06:20:24.722Z,3.43
2018-06-24T06:25:28.026Z,3.70
2018-06-24T06:30:32.344Z,3.50
2018-06-24T06:35:35.648Z,3.03
2018-06-24T06:40:39.530Z,3.73
2018-06-24T06:45:42.983Z,3.30
2018-06-24T06:50:48.124Z,3.30
2018-06-24T06:55:51.921Z,3.13
2018-06-24T07:00:55.127Z,3.20
2018-06-24T07:05:58.338Z,2.97
2018-06-24T07:11:01.610Z,2.70
2018-06-24T07:16:05.726Z,2.53
2018-06-24T07:21:09.082Z,2.70
2018-06-24T07:26:13.358Z,2.33
2018-06-24T07:31:16.586Z,1.70
2018-06-24T07:36:19.794Z,1.43
2018-06-24T07:41:23.014Z,2.07
2018-06-24T07:46:26.255Z,2.10
2018-06-24T07:51:30.550Z,2.03
2018-06-24T07:56:33.806Z,2.17
2018-06-24T08:01:37.170Z,1.90
2018-06-24T08:06:40.426Z,1.90
2018-06-24T08:11:45.645Z,1.97
2018-06-24T08:16:48.939Z,1.50
2018-06-24T08:21:52.159Z,1.60
2018-06-24T08:26:55.506Z,2.07
2018-06-24T08:31:58.807Z,1.83
2018-06-24T08:37:02.156Z,1.53
2018-06-24T08:42:05.173Z,1.47
2018-06-24T08:47:08.469Z,2.00
2018-06-24T08:52:11.721Z,1.50
2018-06-24T08:57:15.380Z,2.47
2018-06-24T09:02:18.582Z,2.37
2018-06-24T09:07:21.844Z,1.70
2018-06-24T09:12:25.100Z,1.53
2018-06-24T09:17:29.439Z,1.10
2018-06-24T09:22:33.195Z,1.50
2018-06-24T09:27:36.467Z,1.23
2018-06-24T09:32:39.890Z,1.00
2018-06-24T09:37:43.194Z,1.23
2018-06-24T09:42:46.452Z,1.00
2018-06-24T09:47:49.676Z,1.63
2018-06-24T09:52:52.933Z,1.70
2018-06-24T09:58:03.275Z,1.30
2018-06-24T10:03:06.486Z,1.70
2018-06-24T10:08:09.861Z,1.53
2018-06-24T10:13:13.115Z,1.90
2018-06-24T10:18:16.326Z,2.00
2018-06-24T10:23:21.552Z,2.13
2018-06-24T10:28:24.806Z,2.20
2018-06-24T10:33:29.035Z,3.03
2018-06-24T10:38:38.971Z,2.47
2018-06-24T10:43:42.204Z,2.53
2018-06-24T10:48:45.635Z,2.30
2018-06-24T10:53:48.800Z,1.90
2018-06-24T10:58:55.508Z,2.07
2018-06-24T11:03:58.724Z,1.87
2018-06-24T11:09:01.913Z,1.30
2018-06-24T11:14:05.756Z,1.33
2018-06-24T11:19:09.107Z,1.50
2018-06-24T11:24:12.417Z,2.20
2018-06-24T11:29:16.611Z,2.30
2018-06-24T11:34:19.829Z,1.93
2018-06-24T11:39:23.075Z,1.67
2018-06-24T11:44:26.387Z,1.90
2018-06-24T11:49:29.954Z,2.00
2018-06-24T11:54:33.235Z,2.43
2018-06-24T11:59:37.723Z,2.30
2018-06-24T12:04:40.977Z,2.70
2018-06-24T12:09:44.295Z,2.53
2018-06-24T12:14:49.193Z,2.10
2018-06-24T12:19:52.684Z,2.00
2018-06-24T12:24:56.130Z,2.40
2018-06-24T12:30:00.354Z,2.97
2018-06-24T12:35:03.838Z,3.00
2018-06-24T12:40:07.102Z,2.57
2018-06-24T12:45:10.432Z,3.37
2018-06-24T12:50:13.739Z,2.67
2018-06-24T12:55:17.283Z,2.83
2018-06-24T13:00:20.943Z,3.20
2018-06-24T13:05:24.215Z,3.43
2018-06-24T13:10:27.426Z,3.20
2018-06-24T13:15:30.686Z,2.17
2018-06-24T13:20:33.903Z,2.60
2018-06-24T13:25:37.098Z,2.47
2018-06-24T13:30:40.665Z,2.50
2018-06-24T13:35:43.923Z,2.20
2018-06-24T13:40:49.266Z,2.63
2018-06-24T13:45:52.517Z,2.70
2018-06-24T13:50:55.815Z,3.10
2018-06-24T13:55:59.150Z,3.00
2018-06-24T14:01:03.986Z,3.57
2018-06-24T14:06:07.489Z,2.83
2018-06-24T14:11:10.674Z,3.60
2018-06-24T14:16:13.692Z,3.67
2018-06-24T14:21:16.885Z,4.53
2018-06-24T14:26:20.674Z,4.77
2018-06-24T14:31:23.969Z,4.07
2018-06-24T14:36:27.724Z,3.70
2018-06-24T14:41:30.955Z,4.40
2018-06-24T14:46:34.134Z,3.07
2018-06-24T14:51:37.379Z,4.20
2018-06-24T14:56:40.615Z,3.70
2018-06-24T15:01:54.218Z,3.67
2018-06-24T15:06:57.530Z,3.47
2018-06-24T15:12:00.810Z,4.13
2018-06-24T15:17:04.286Z,4.30
2018-06-24T15:22:12.294Z,6.90
2018-06-24T15:27:15.378Z,5.13
2018-06-24T15:32:18.998Z,3.40
2018-06-24T15:37:23.358Z,4.63
2018-06-24T15:42:27.491Z,5.93
2018-06-24T15:47:33.091Z,4.40
2018-06-24T15:52:37.154Z,3.87
2018-06-24T15:57:40.365Z,3.10
2018-06-24T16:02:44.810Z,3.47
2018-06-24T16:07:48.114Z,3.40
2018-06-24T16:12:51.396Z,2.97
2018-06-24T16:17:59.154Z,3.47
2018-06-24T16:23:02.399Z,3.23
2018-06-24T16:28:06.145Z,3.00
2018-06-24T16:33:09.481Z,3.20
2018-06-24T16:38:12.664Z,2.40
2018-06-24T16:43:15.864Z,2.70
2018-06-24T16:48:19.077Z,3.00
2018-06-24T16:53:24.058Z,2.53
2018-06-24T16:58:32.991Z,2.80
2018-06-24T17:03:36.459Z,2.80
2018-06-24T17:08:39.667Z,2.90
2018-06-24T17:13:42.856Z,3.33
2018-06-24T17:18:46.074Z,3.50
2018-06-24T17:23:49.290Z,2.83
2018-06-24T17:28:52.478Z,2.30
2018-06-24T17:33:55.714Z,2.27
2018-06-24T17:38:58.889Z,2.53
2018-06-24T17:44:02.047Z,2.50
2018-06-24T17:49:05.266Z,2.60
2018-06-24T17:54:08.493Z,5.20
2018-06-24T17:59:11.773Z,5.27
2018-06-24T18:04:14.955Z,4.80
2018-06-24T18:09:18.542Z,3.77
2018-06-24T18:14:22.904Z,3.13
2018-06-24T18:19:26.412Z,3.13
2018-06-24T18:24:29.628Z,3.30
2018-06-24T18:29:32.794Z,4.00
2018-06-24T18:34:35.970Z,4.00
2018-06-24T18:39:39.174Z,4.03
2018-06-24T18:44:42.357Z,3.50
2018-06-24T18:49:45.544Z,3.53
2018-06-24T18:54:48.730Z,3.43
2018-06-24T18:59:51.967Z,3.60
2018-06-24T19:04:55.957Z,3.87
2018-06-24T19:09:59.354Z,3.83
2018-06-24T19:15:02.596Z,3.67
2018-06-24T19:20:05.795Z,4.10
2018-06-24T19:25:08.965Z,4.53
2018-06-24T19:30:12.332Z,4.80
2018-06-24T19:35:15.594Z,6.43
2018-06-24T19:40:18.792Z,5.50
2018-06-24T19:45:21.947Z,5.50
2018-06-24T19:50:25.188Z,4.30
2018-06-24T19:55:28.954Z,3.07
2018-06-24T20:00:33.480Z,2.80
2018-06-24T20:05:38.270Z,2.20
2018-06-24T20:10:43.845Z,1.73
2018-06-24T20:15:48.043Z,1.43
2018-06-24T20:20:51.762Z,1.50
2018-06-24T20:25:55.083Z,1.20
2018-06-24T20:30:58.253Z,1.40
2018-06-24T20:36:01.459Z,1.30
2018-06-24T20:41:04.698Z,1.60
2018-06-24T20:46:07.921Z,1.40
2018-06-24T20:51:11.126Z,1.23
2018-06-24T20:56:14.332Z,1.87
2018-06-24T21:01:17.554Z,1.63
2018-06-24T21:06:20.771Z,2.20
2018-06-24T21:11:23.839Z,1.67
2018-06-24T21:16:27.030Z,1.67
2018-06-24T21:21:30.342Z,1.80
2018-06-24T21:26:33.577Z,2.00
2018-06-24T21:31:36.714Z,1.70
2018-06-24T21:36:39.974Z,1.70
2018-06-24T21:41:43.180Z,1.83
2018-06-24T21:46:46.521Z,2.03
2018-06-24T21:51:50.606Z,1.97
2018-06-24T21:56:53.833Z,2.07
2018-06-24T22:01:57.074Z,1.90
2018-06-24T22:07:00.286Z,1.93
2018-06-24T22:12:03.526Z,1.60
2018-06-24T22:17:06.928Z,2.03
2018-06-24T22:22:10.063Z,1.67
2018-06-24T22:27:13.234Z,1.90
2018-06-24T22:32:16.492Z,1.70
2018-06-24T22:37:19.654Z,1.80
2018-06-24T22:42:22.809Z,2.07
2018-06-24T22:47:28.162Z,2.13
2018-06-24T22:52:31.378Z,1.97
2018-06-24T22:57:34.562Z,2.50
2018-06-24T23:02:38.183Z,2.40
2018-06-24T23:07:42.506Z,2.67
2018-06-24T23:12:45.680Z,3.10
2018-06-24T23:17:49.577Z,3.30
2018-06-24T23:22:52.741Z,3.33
2018-06-24T23:27:56.018Z,2.90
2018-06-24T23:32:59.267Z,3.60
2018-06-24T23:38:02.433Z,3.17
2018-06-24T23:43:06.492Z,3.33
2018-06-24T23:48:09.691Z,4.10
2018-06-24T23:53:12.910Z,3.87
2018-06-24T23:58:19.275Z,3.93
